sensor_id;sensor_type;location;lat;lon;timestamp;temperature;humidity
19232;DHT22;9750;48.730;10.294;2023-02-28T00:01:47;0.10;90.60
19232;DHT22;9750;48.730;10.294;2023-02-28T00:04:16;0.10;90.60
19232;DHT22;9750;48.730;10.294;2023-02-28T00:06:43;0.10;90.60
19232;DHT22;9750;48.730;10.294;2023-02-28T00:09:10;0.10;90.70
19232;DHT22;9750;48.730;10.294;2023-02-28T00:11:37;0.20;90.80
19232;DHT22;9750;48.730;10.294;2023-02-28T00:14:05;0.10;90.60
19232;DHT22;9750;48.730;10.294;2023-02-28T00:16:32;0.10;90.70
19232;DHT22;9750;48.730;10.294;2023-02-28T00:19:00;0.10;90.70
19232;DHT22;9750;48.730;10.294;2023-02-28T00:21:29;0.00;90.90
19232;DHT22;9750;48.730;10.294;2023-02-28T00:23:56;0.00;90.80
19232;DHT22;9750;48.730;10.294;2023-02-28T00:26:23;0.00;90.90
19232;DHT22;9750;48.730;10.294;2023-02-28T00:29:01;0.10;90.80
19232;DHT22;9750;48.730;10.294;2023-02-28T00:31:30;0.00;90.90
19232;DHT22;9750;48.730;10.294;2023-02-28T00:34:00;0.00;90.90
19232;DHT22;9750;48.730;10.294;2023-02-28T00:36:29;0.00;91.00
19232;DHT22;9750;48.730;10.294;2023-02-28T00:38:56;0.00;91.10
19232;DHT22;9750;48.730;10.294;2023-02-28T00:41:23;0.00;91.00
19232;DHT22;9750;48.730;10.294;2023-02-28T00:43:51;-0.10;91.10
19232;DHT22;9750;48.730;10.294;2023-02-28T00:46:18;-0.10;91.10
19232;DHT22;9750;48.730;10.294;2023-02-28T00:48:45;-0.10;91.30
19232;DHT22;9750;48.730;10.294;2023-02-28T00:51:12;-0.10;91.30
19232;DHT22;9750;48.730;10.294;2023-02-28T00:53:41;-0.10;91.30
19232;DHT22;9750;48.730;10.294;2023-02-28T00:56:08;-0.10;91.30
19232;DHT22;9750;48.730;10.294;2023-02-28T00:58:36;-0.10;91.40
19232;DHT22;9750;48.730;10.294;2023-02-28T01:01:03;-0.10;91.40
19232;DHT22;9750;48.730;10.294;2023-02-28T01:03:30;0.00;91.40
19232;DHT22;9750;48.730;10.294;2023-02-28T01:05:58;-0.10;91.50
19232;DHT22;9750;48.730;10.294;2023-02-28T01:08:25;-0.10;91.40
19232;DHT22;9750;48.730;10.294;2023-02-28T01:10:54;-0.10;91.50
19232;DHT22;9750;48.730;10.294;2023-02-28T01:13:22;-0.10;91.50
19232;DHT22;9750;48.730;10.294;2023-02-28T01:15:52;-0.10;91.60
19232;DHT22;9750;48.730;10.294;2023-02-28T01:18:20;-0.10;91.60
19232;DHT22;9750;48.730;10.294;2023-02-28T01:20:48;-0.10;91.80
19232;DHT22;9750;48.730;10.294;2023-02-28T01:23:17;-0.20;91.70
19232;DHT22;9750;48.730;10.294;2023-02-28T01:25:45;-0.20;91.70
19232;DHT22;9750;48.730;10.294;2023-02-28T01:28:33;-0.20;91.80
19232;DHT22;9750;48.730;10.294;2023-02-28T01:31:01;-0.20;91.80
19232;DHT22;9750;48.730;10.294;2023-02-28T01:33:28;-0.30;91.90
19232;DHT22;9750;48.730;10.294;2023-02-28T01:35:59;-0.30;91.90
19232;DHT22;9750;48.730;10.294;2023-02-28T01:38:27;-0.30;92.00
19232;DHT22;9750;48.730;10.294;2023-02-28T01:40:54;-0.30;92.00
19232;DHT22;9750;48.730;10.294;2023-02-28T01:43:23;-0.30;92.00
19232;DHT22;9750;48.730;10.294;2023-02-28T01:45:53;-0.30;91.90
19232;DHT22;9750;48.730;10.294;2023-02-28T01:48:24;-0.30;92.00
19232;DHT22;9750;48.730;10.294;2023-02-28T01:50:53;-0.20;92.10
19232;DHT22;9750;48.730;10.294;2023-02-28T01:53:24;-0.30;92.10
19232;DHT22;9750;48.730;10.294;2023-02-28T01:59:03;-0.30;92.10
19232;DHT22;9750;48.730;10.294;2023-02-28T02:01:32;-0.30;92.30
19232;DHT22;9750;48.730;10.294;2023-02-28T02:04:01;-0.30;92.30
19232;DHT22;9750;48.730;10.294;2023-02-28T02:06:33;-0.30;92.40
19232;DHT22;9750;48.730;10.294;2023-02-28T02:09:01;-0.30;92.50
19232;DHT22;9750;48.730;10.294;2023-02-28T02:11:29;-0.30;92.50
19232;DHT22;9750;48.730;10.294;2023-02-28T02:14:10;-0.30;92.50
19232;DHT22;9750;48.730;10.294;2023-02-28T02:16:51;-0.30;92.60
19232;DHT22;9750;48.730;10.294;2023-02-28T02:19:51;-0.40;92.70
19232;DHT22;9750;48.730;10.294;2023-02-28T02:25:28;-0.30;92.70
19232;DHT22;9750;48.730;10.294;2023-02-28T02:28:32;-0.30;92.70
19232;DHT22;9750;48.730;10.294;2023-02-28T02:34:26;-0.30;92.80
19232;DHT22;9750;48.730;10.294;2023-02-28T02:37:03;-0.30;92.90
19232;DHT22;9750;48.730;10.294;2023-02-28T02:39:39;-0.30;92.90
19232;DHT22;9750;48.730;10.294;2023-02-28T02:42:13;-0.30;92.90
19232;DHT22;9750;48.730;10.294;2023-02-28T02:44:45;-0.30;92.90
19232;DHT22;9750;48.730;10.294;2023-02-28T02:47:17;-0.30;93.00
19232;DHT22;9750;48.730;10.294;2023-02-28T02:49:50;-0.30;92.90
19232;DHT22;9750;48.730;10.294;2023-02-28T02:52:22;-0.30;92.80
19232;DHT22;9750;48.730;10.294;2023-02-28T02:54:53;-0.30;92.80
19232;DHT22;9750;48.730;10.294;2023-02-28T02:57:27;-0.30;92.80
19232;DHT22;9750;48.730;10.294;2023-02-28T02:59:57;-0.30;92.90
19232;DHT22;9750;48.730;10.294;2023-02-28T03:02:28;-0.20;92.90
19232;DHT22;9750;48.730;10.294;2023-02-28T03:05:04;-0.30;93.00
19232;DHT22;9750;48.730;10.294;2023-02-28T03:07:33;-0.30;93.00
19232;DHT22;9750;48.730;10.294;2023-02-28T03:10:00;-0.30;93.20
19232;DHT22;9750;48.730;10.294;2023-02-28T03:12:32;-0.20;93.00
19232;DHT22;9750;48.730;10.294;2023-02-28T03:15:06;-0.30;92.70
19232;DHT22;9750;48.730;10.294;2023-02-28T03:17:49;-0.20;92.80
19232;DHT22;9750;48.730;10.294;2023-02-28T03:20:28;-0.20;92.90
19232;DHT22;9750;48.730;10.294;2023-02-28T03:23:03;-0.20;92.80
19232;DHT22;9750;48.730;10.294;2023-02-28T03:25:38;-0.20;92.70
19232;DHT22;9750;48.730;10.294;2023-02-28T03:28:12;-0.20;92.90
19232;DHT22;9750;48.730;10.294;2023-02-28T03:30:47;-0.20;93.00
19232;DHT22;9750;48.730;10.294;2023-02-28T03:33:20;-0.20;93.00
19232;DHT22;9750;48.730;10.294;2023-02-28T03:35:52;-0.20;93.00
19232;DHT22;9750;48.730;10.294;2023-02-28T03:38:26;-0.20;92.90
19232;DHT22;9750;48.730;10.294;2023-02-28T03:41:00;-0.20;92.90
19232;DHT22;9750;48.730;10.294;2023-02-28T03:43:30;-0.20;92.90
19232;DHT22;9750;48.730;10.294;2023-02-28T03:46:00;-0.20;92.90
19232;DHT22;9750;48.730;10.294;2023-02-28T03:48:32;-0.20;93.00
19232;DHT22;9750;48.730;10.294;2023-02-28T03:51:07;-0.20;92.80
19232;DHT22;9750;48.730;10.294;2023-02-28T03:53:38;-0.20;92.90
19232;DHT22;9750;48.730;10.294;2023-02-28T03:56:11;-0.20;93.00
19232;DHT22;9750;48.730;10.294;2023-02-28T03:58:43;-0.20;92.90
19232;DHT22;9750;48.730;10.294;2023-02-28T04:01:19;-0.20;93.00
19232;DHT22;9750;48.730;10.294;2023-02-28T04:03:47;-0.20;93.20
19232;DHT22;9750;48.730;10.294;2023-02-28T04:06:18;-0.30;92.80
19232;DHT22;9750;48.730;10.294;2023-02-28T04:08:46;-0.30;92.80
19232;DHT22;9750;48.730;10.294;2023-02-28T04:48:32;-0.40;93.20
19232;DHT22;9750;48.730;10.294;2023-02-28T04:51:07;-0.40;93.30
19232;DHT22;9750;48.730;10.294;2023-02-28T04:53:42;-0.40;93.20
19232;DHT22;9750;48.730;10.294;2023-02-28T04:56:23;-0.40;93.20
19232;DHT22;9750;48.730;10.294;2023-02-28T04:58:53;-0.40;93.60
19232;DHT22;9750;48.730;10.294;2023-02-28T05:01:24;-0.40;93.30
19232;DHT22;9750;48.730;10.294;2023-02-28T05:03:55;-0.40;93.30
19232;DHT22;9750;48.730;10.294;2023-02-28T05:06:26;-0.40;93.40
19232;DHT22;9750;48.730;10.294;2023-02-28T05:08:54;-0.40;93.30
19232;DHT22;9750;48.730;10.294;2023-02-28T05:11:24;-0.40;93.30
19232;DHT22;9750;48.730;10.294;2023-02-28T05:13:52;-0.40;93.20
19232;DHT22;9750;48.730;10.294;2023-02-28T05:16:19;-0.40;93.20
19232;DHT22;9750;48.730;10.294;2023-02-28T05:18:47;-0.40;93.30
19232;DHT22;9750;48.730;10.294;2023-02-28T05:21:27;-0.40;93.20
19232;DHT22;9750;48.730;10.294;2023-02-28T05:23:55;-0.40;93.20
19232;DHT22;9750;48.730;10.294;2023-02-28T05:26:23;-0.40;93.10
19232;DHT22;9750;48.730;10.294;2023-02-28T05:28:50;-0.40;93.30
19232;DHT22;9750;48.730;10.294;2023-02-28T05:31:17;-0.40;93.30
19232;DHT22;9750;48.730;10.294;2023-02-28T05:33:45;-0.40;93.40
19232;DHT22;9750;48.730;10.294;2023-02-28T05:36:12;-0.40;93.30
19232;DHT22;9750;48.730;10.294;2023-02-28T05:38:41;-0.40;93.30
19232;DHT22;9750;48.730;10.294;2023-02-28T05:41:09;-0.40;93.30
19232;DHT22;9750;48.730;10.294;2023-02-28T05:43:37;-0.30;93.30
19232;DHT22;9750;48.730;10.294;2023-02-28T05:46:05;-0.30;93.10
19232;DHT22;9750;48.730;10.294;2023-02-28T05:48:34;-0.30;93.20
19232;DHT22;9750;48.730;10.294;2023-02-28T05:51:01;-0.40;93.30
19232;DHT22;9750;48.730;10.294;2023-02-28T05:53:30;-0.40;93.20
19232;DHT22;9750;48.730;10.294;2023-02-28T05:55:59;-0.40;93.60
19232;DHT22;9750;48.730;10.294;2023-02-28T05:58:26;-0.40;93.40
19232;DHT22;9750;48.730;10.294;2023-02-28T06:00:56;-0.30;93.30
19232;DHT22;9750;48.730;10.294;2023-02-28T06:03:24;-0.40;93.50
19232;DHT22;9750;48.730;10.294;2023-02-28T06:05:51;-0.40;93.30
19232;DHT22;9750;48.730;10.294;2023-02-28T06:08:18;-0.30;93.20
19232;DHT22;9750;48.730;10.294;2023-02-28T06:10:45;-0.30;93.10
19232;DHT22;9750;48.730;10.294;2023-02-28T06:13:14;-0.30;93.10
19232;DHT22;9750;48.730;10.294;2023-02-28T06:15:41;-0.30;93.10
19232;DHT22;9750;48.730;10.294;2023-02-28T06:18:09;-0.40;93.20
19232;DHT22;9750;48.730;10.294;2023-02-28T06:20:36;-0.40;93.30
19232;DHT22;9750;48.730;10.294;2023-02-28T06:23:03;-0.40;93.30
19232;DHT22;9750;48.730;10.294;2023-02-28T06:25:31;-0.30;93.30
19232;DHT22;9750;48.730;10.294;2023-02-28T06:27:58;-0.30;93.30
19232;DHT22;9750;48.730;10.294;2023-02-28T06:30:27;-0.30;93.40
19232;DHT22;9750;48.730;10.294;2023-02-28T06:32:56;-0.30;93.30
19232;DHT22;9750;48.730;10.294;2023-02-28T06:35:24;-0.30;93.10
19232;DHT22;9750;48.730;10.294;2023-02-28T06:37:52;-0.30;93.20
19232;DHT22;9750;48.730;10.294;2023-02-28T06:40:19;-0.30;93.10
19232;DHT22;9750;48.730;10.294;2023-02-28T06:42:46;-0.20;93.20
19232;DHT22;9750;48.730;10.294;2023-02-28T06:45:14;-0.20;93.20
19232;DHT22;9750;48.730;10.294;2023-02-28T06:47:42;-0.20;93.20
19232;DHT22;9750;48.730;10.294;2023-02-28T06:50:11;-0.20;93.10
19232;DHT22;9750;48.730;10.294;2023-02-28T06:52:39;-0.20;93.00
19232;DHT22;9750;48.730;10.294;2023-02-28T06:55:07;-0.20;93.00
19232;DHT22;9750;48.730;10.294;2023-02-28T06:57:35;-0.20;93.00
19232;DHT22;9750;48.730;10.294;2023-02-28T07:00:05;-0.10;92.90
19232;DHT22;9750;48.730;10.294;2023-02-28T07:02:34;-0.10;93.00
19232;DHT22;9750;48.730;10.294;2023-02-28T07:05:03;-0.10;92.90
19232;DHT22;9750;48.730;10.294;2023-02-28T07:07:31;-0.10;92.80
19232;DHT22;9750;48.730;10.294;2023-02-28T07:09:59;0.00;92.90
19232;DHT22;9750;48.730;10.294;2023-02-28T07:12:27;0.00;93.00
19232;DHT22;9750;48.730;10.294;2023-02-28T07:14:54;0.00;92.90
19232;DHT22;9750;48.730;10.294;2023-02-28T07:17:21;0.00;92.90
19232;DHT22;9750;48.730;10.294;2023-02-28T07:19:48;0.00;92.80
19232;DHT22;9750;48.730;10.294;2023-02-28T07:22:17;0.00;92.90
19232;DHT22;9750;48.730;10.294;2023-02-28T07:24:44;0.00;92.90
19232;DHT22;9750;48.730;10.294;2023-02-28T07:27:12;0.00;92.70
19232;DHT22;9750;48.730;10.294;2023-02-28T07:29:51;0.00;92.90
19232;DHT22;9750;48.730;10.294;2023-02-28T07:32:19;0.00;92.80
19232;DHT22;9750;48.730;10.294;2023-02-28T07:34:46;0.10;92.60
19232;DHT22;9750;48.730;10.294;2023-02-28T07:37:14;0.20;92.70
19232;DHT22;9750;48.730;10.294;2023-02-28T07:39:43;0.20;92.40
19232;DHT22;9750;48.730;10.294;2023-02-28T07:42:10;0.30;92.50
19232;DHT22;9750;48.730;10.294;2023-02-28T07:44:41;0.30;92.50
19232;DHT22;9750;48.730;10.294;2023-02-28T07:47:11;0.30;92.30
19232;DHT22;9750;48.730;10.294;2023-02-28T07:49:38;0.40;92.30
19232;DHT22;9750;48.730;10.294;2023-02-28T07:52:06;0.40;92.30
19232;DHT22;9750;48.730;10.294;2023-02-28T07:54:36;0.40;92.30
19232;DHT22;9750;48.730;10.294;2023-02-28T07:57:09;0.50;92.20
19232;DHT22;9750;48.730;10.294;2023-02-28T07:59:39;0.50;92.00
19232;DHT22;9750;48.730;10.294;2023-02-28T08:02:06;0.50;92.20
19232;DHT22;9750;48.730;10.294;2023-02-28T08:04:37;0.50;92.10
19232;DHT22;9750;48.730;10.294;2023-02-28T08:07:07;0.50;91.90
19232;DHT22;9750;48.730;10.294;2023-02-28T08:09:39;0.50;92.10
19232;DHT22;9750;48.730;10.294;2023-02-28T08:12:07;0.60;92.10
19232;DHT22;9750;48.730;10.294;2023-02-28T08:14:36;0.60;92.20
19232;DHT22;9750;48.730;10.294;2023-02-28T08:20:16;0.60;92.20
19232;DHT22;9750;48.730;10.294;2023-02-28T08:22:44;0.60;92.10
19232;DHT22;9750;48.730;10.294;2023-02-28T08:25:14;0.70;92.20
19232;DHT22;9750;48.730;10.294;2023-02-28T08:27:41;0.70;92.00
19232;DHT22;9750;48.730;10.294;2023-02-28T08:30:12;0.80;92.20
19232;DHT22;9750;48.730;10.294;2023-02-28T08:32:40;0.80;92.10
19232;DHT22;9750;48.730;10.294;2023-02-28T08:35:08;0.90;92.10
19232;DHT22;9750;48.730;10.294;2023-02-28T08:37:41;0.90;92.20
19232;DHT22;9750;48.730;10.294;2023-02-28T08:40:13;0.90;91.80
19232;DHT22;9750;48.730;10.294;2023-02-28T08:42:46;0.90;91.80
19232;DHT22;9750;48.730;10.294;2023-02-28T08:45:16;1.00;91.60
19232;DHT22;9750;48.730;10.294;2023-02-28T08:47:43;1.00;91.30
19232;DHT22;9750;48.730;10.294;2023-02-28T08:50:11;1.00;91.40
19232;DHT22;9750;48.730;10.294;2023-02-28T08:52:42;1.10;91.70
19232;DHT22;9750;48.730;10.294;2023-02-28T08:55:09;1.30;91.80
19232;DHT22;9750;48.730;10.294;2023-02-28T08:57:37;1.30;91.40
19232;DHT22;9750;48.730;10.294;2023-02-28T09:00:05;1.40;91.50
19232;DHT22;9750;48.730;10.294;2023-02-28T09:02:34;1.50;91.10
19232;DHT22;9750;48.730;10.294;2023-02-28T09:05:03;1.60;91.20
19232;DHT22;9750;48.730;10.294;2023-02-28T09:07:30;1.70;91.10
19232;DHT22;9750;48.730;10.294;2023-02-28T09:09:59;1.70;90.90
19232;DHT22;9750;48.730;10.294;2023-02-28T09:12:28;1.80;90.90
19232;DHT22;9750;48.730;10.294;2023-02-28T09:14:58;1.90;91.10
19232;DHT22;9750;48.730;10.294;2023-02-28T09:17:26;2.00;91.10
19232;DHT22;9750;48.730;10.294;2023-02-28T09:19:54;2.10;90.90
19232;DHT22;9750;48.730;10.294;2023-02-28T09:22:22;2.10;90.30
19232;DHT22;9750;48.730;10.294;2023-02-28T09:24:49;2.20;90.70
19232;DHT22;9750;48.730;10.294;2023-02-28T09:27:17;2.20;90.40
19232;DHT22;9750;48.730;10.294;2023-02-28T09:29:44;2.30;90.40
19232;DHT22;9750;48.730;10.294;2023-02-28T09:32:11;2.30;90.10
19232;DHT22;9750;48.730;10.294;2023-02-28T09:34:39;2.30;89.10
19232;DHT22;9750;48.730;10.294;2023-02-28T09:37:07;2.30;89.60
19232;DHT22;9750;48.730;10.294;2023-02-28T09:39:34;2.30;89.10
19232;DHT22;9750;48.730;10.294;2023-02-28T09:42:03;2.30;89.10
19232;DHT22;9750;48.730;10.294;2023-02-28T09:44:35;2.40;88.90
19232;DHT22;9750;48.730;10.294;2023-02-28T09:47:10;2.50;88.90
19232;DHT22;9750;48.730;10.294;2023-02-28T09:49:41;2.50;87.90
19232;DHT22;9750;48.730;10.294;2023-02-28T09:52:15;2.50;87.70
19232;DHT22;9750;48.730;10.294;2023-02-28T09:54:45;2.60;88.20
19232;DHT22;9750;48.730;10.294;2023-02-28T09:57:18;2.70;87.30
19232;DHT22;9750;48.730;10.294;2023-02-28T10:00:05;2.70;87.30
19232;DHT22;9750;48.730;10.294;2023-02-28T10:05:52;2.80;87.80
19232;DHT22;9750;48.730;10.294;2023-02-28T10:08:25;2.80;87.50
19232;DHT22;9750;48.730;10.294;2023-02-28T10:10:56;2.80;86.70
19232;DHT22;9750;48.730;10.294;2023-02-28T10:13:28;2.80;86.80
19232;DHT22;9750;48.730;10.294;2023-02-28T10:16:01;2.80;87.00
19232;DHT22;9750;48.730;10.294;2023-02-28T10:18:34;2.90;86.40
19232;DHT22;9750;48.730;10.294;2023-02-28T10:21:08;2.90;86.00
19232;DHT22;9750;48.730;10.294;2023-02-28T10:23:42;2.90;86.30
19232;DHT22;9750;48.730;10.294;2023-02-28T10:26:12;2.90;88.00
19232;DHT22;9750;48.730;10.294;2023-02-28T10:28:42;2.90;87.50
19232;DHT22;9750;48.730;10.294;2023-02-28T10:31:13;2.90;87.30
19232;DHT22;9750;48.730;10.294;2023-02-28T10:33:42;3.00;86.70
19232;DHT22;9750;48.730;10.294;2023-02-28T10:36:14;3.00;87.90
19232;DHT22;9750;48.730;10.294;2023-02-28T10:38:44;3.10;86.90
19232;DHT22;9750;48.730;10.294;2023-02-28T10:41:14;3.10;87.80
19232;DHT22;9750;48.730;10.294;2023-02-28T10:43:42;3.20;88.20
19232;DHT22;9750;48.730;10.294;2023-02-28T10:46:13;3.20;87.10
19232;DHT22;9750;48.730;10.294;2023-02-28T10:49:00;3.30;87.00
19232;DHT22;9750;48.730;10.294;2023-02-28T10:51:35;3.30;87.00
19232;DHT22;9750;48.730;10.294;2023-02-28T10:54:04;3.30;86.80
19232;DHT22;9750;48.730;10.294;2023-02-28T10:56:32;3.30;86.30
19232;DHT22;9750;48.730;10.294;2023-02-28T10:59:02;3.40;87.00
19232;DHT22;9750;48.730;10.294;2023-02-28T11:01:38;3.40;86.60
19232;DHT22;9750;48.730;10.294;2023-02-28T11:04:18;3.40;86.50
19232;DHT22;9750;48.730;10.294;2023-02-28T11:06:47;3.50;86.90
19232;DHT22;9750;48.730;10.294;2023-02-28T11:09:23;3.50;86.80
19232;DHT22;9750;48.730;10.294;2023-02-28T11:11:52;3.60;85.80
19232;DHT22;9750;48.730;10.294;2023-02-28T11:14:21;3.60;86.20
19232;DHT22;9750;48.730;10.294;2023-02-28T11:16:50;3.60;85.50
19232;DHT22;9750;48.730;10.294;2023-02-28T11:19:22;3.70;86.10
19232;DHT22;9750;48.730;10.294;2023-02-28T11:21:54;3.70;86.20
19232;DHT22;9750;48.730;10.294;2023-02-28T11:24:26;3.80;86.50
19232;DHT22;9750;48.730;10.294;2023-02-28T11:26:54;3.90;86.90
19232;DHT22;9750;48.730;10.294;2023-02-28T11:29:24;3.90;86.30
19232;DHT22;9750;48.730;10.294;2023-02-28T11:32:19;3.90;85.20
19232;DHT22;9750;48.730;10.294;2023-02-28T11:35:01;3.90;84.50
19232;DHT22;9750;48.730;10.294;2023-02-28T11:37:29;4.00;85.20
19232;DHT22;9750;48.730;10.294;2023-02-28T11:39:58;4.10;86.20
19232;DHT22;9750;48.730;10.294;2023-02-28T11:42:46;4.10;84.50
19232;DHT22;9750;48.730;10.294;2023-02-28T11:45:29;4.10;84.00
19232;DHT22;9750;48.730;10.294;2023-02-28T11:48:25;4.10;84.90
19232;DHT22;9750;48.730;10.294;2023-02-28T11:51:02;4.20;86.50
19232;DHT22;9750;48.730;10.294;2023-02-28T11:53:50;4.30;86.10
19232;DHT22;9750;48.730;10.294;2023-02-28T11:56:27;4.30;84.40
19232;DHT22;9750;48.730;10.294;2023-02-28T11:59:08;4.30;84.80
19232;DHT22;9750;48.730;10.294;2023-02-28T12:04:41;4.30;83.40
19232;DHT22;9750;48.730;10.294;2023-02-28T12:07:18;4.40;84.40
19232;DHT22;9750;48.730;10.294;2023-02-28T12:09:59;4.40;84.10
19232;DHT22;9750;48.730;10.294;2023-02-28T12:12:41;4.40;84.40
19232;DHT22;9750;48.730;10.294;2023-02-28T12:18:26;4.40;82.90
19232;DHT22;9750;48.730;10.294;2023-02-28T12:21:04;4.40;85.10
19232;DHT22;9750;48.730;10.294;2023-02-28T12:23:55;4.40;82.90
19232;DHT22;9750;48.730;10.294;2023-02-28T12:26:30;4.40;84.20
19232;DHT22;9750;48.730;10.294;2023-02-28T12:29:09;4.40;83.30
19232;DHT22;9750;48.730;10.294;2023-02-28T12:31:41;4.50;84.40
19232;DHT22;9750;48.730;10.294;2023-02-28T12:34:13;4.50;83.70
19232;DHT22;9750;48.730;10.294;2023-02-28T12:36:44;4.50;83.30
19232;DHT22;9750;48.730;10.294;2023-02-28T12:39:15;4.60;83.30
19232;DHT22;9750;48.730;10.294;2023-02-28T12:41:48;4.60;82.90
19232;DHT22;9750;48.730;10.294;2023-02-28T12:44:22;4.60;83.60
19232;DHT22;9750;48.730;10.294;2023-02-28T12:46:52;4.60;82.70
19232;DHT22;9750;48.730;10.294;2023-02-28T12:49:23;4.60;82.00
19232;DHT22;9750;48.730;10.294;2023-02-28T12:51:53;4.50;83.70
19232;DHT22;9750;48.730;10.294;2023-02-28T12:54:24;4.60;82.70
19232;DHT22;9750;48.730;10.294;2023-02-28T12:56:58;4.50;82.20
19232;DHT22;9750;48.730;10.294;2023-02-28T12:59:36;4.50;82.80
19232;DHT22;9750;48.730;10.294;2023-02-28T13:05:36;4.50;83.70
19232;DHT22;9750;48.730;10.294;2023-02-28T13:10:58;4.60;82.90
19232;DHT22;9750;48.730;10.294;2023-02-28T13:13:27;4.60;82.20
19232;DHT22;9750;48.730;10.294;2023-02-28T13:16:03;4.50;82.20
19232;DHT22;9750;48.730;10.294;2023-02-28T13:18:37;4.40;82.20
19232;DHT22;9750;48.730;10.294;2023-02-28T13:21:06;4.50;82.90
19232;DHT22;9750;48.730;10.294;2023-02-28T13:23:58;4.50;84.10
19232;DHT22;9750;48.730;10.294;2023-02-28T13:29:31;4.50;83.50
19232;DHT22;9750;48.730;10.294;2023-02-28T13:32:26;4.60;83.40
19232;DHT22;9750;48.730;10.294;2023-02-28T13:41:45;4.60;82.80
19232;DHT22;9750;48.730;10.294;2023-02-28T13:44:14;4.70;83.20
19232;DHT22;9750;48.730;10.294;2023-02-28T13:50:15;4.70;83.60
19232;DHT22;9750;48.730;10.294;2023-02-28T13:52:53;4.80;82.80
19232;DHT22;9750;48.730;10.294;2023-02-28T13:55:27;4.80;82.90
19232;DHT22;9750;48.730;10.294;2023-02-28T13:58:24;4.80;81.70
19232;DHT22;9750;48.730;10.294;2023-02-28T14:01:11;4.70;81.60
19232;DHT22;9750;48.730;10.294;2023-02-28T14:04:02;4.70;82.00
19232;DHT22;9750;48.730;10.294;2023-02-28T14:06:37;4.70;82.00
19232;DHT22;9750;48.730;10.294;2023-02-28T14:09:16;4.80;82.90
19232;DHT22;9750;48.730;10.294;2023-02-28T14:11:45;4.80;82.30
19232;DHT22;9750;48.730;10.294;2023-02-28T14:20:03;4.90;82.40
19232;DHT22;9750;48.730;10.294;2023-02-28T14:22:52;4.90;81.50
19232;DHT22;9750;48.730;10.294;2023-02-28T14:25:30;4.80;81.20
19232;DHT22;9750;48.730;10.294;2023-02-28T14:28:08;4.80;82.10
19232;DHT22;9750;48.730;10.294;2023-02-28T14:30:57;4.80;82.90
19232;DHT22;9750;48.730;10.294;2023-02-28T14:33:43;4.90;82.70
19232;DHT22;9750;48.730;10.294;2023-02-28T14:36:18;4.90;83.00
19232;DHT22;9750;48.730;10.294;2023-02-28T14:38:51;5.00;83.20
19232;DHT22;9750;48.730;10.294;2023-02-28T14:41:22;5.10;83.10
19232;DHT22;9750;48.730;10.294;2023-02-28T14:43:52;5.10;83.20
19232;DHT22;9750;48.730;10.294;2023-02-28T14:46:20;5.10;82.70
19232;DHT22;9750;48.730;10.294;2023-02-28T14:48:48;5.10;82.30
19232;DHT22;9750;48.730;10.294;2023-02-28T14:51:19;5.10;82.10
19232;DHT22;9750;48.730;10.294;2023-02-28T14:53:51;5.10;81.90
19232;DHT22;9750;48.730;10.294;2023-02-28T14:56:24;5.10;81.90
19232;DHT22;9750;48.730;10.294;2023-02-28T14:58:54;5.10;82.10
19232;DHT22;9750;48.730;10.294;2023-02-28T15:01:23;5.10;81.80
19232;DHT22;9750;48.730;10.294;2023-02-28T15:04:02;5.10;81.60
19232;DHT22;9750;48.730;10.294;2023-02-28T15:06:30;5.10;82.20
19232;DHT22;9750;48.730;10.294;2023-02-28T15:09:13;5.00;82.00
19232;DHT22;9750;48.730;10.294;2023-02-28T15:11:41;5.00;82.60
19232;DHT22;9750;48.730;10.294;2023-02-28T15:14:18;5.00;82.30
19232;DHT22;9750;48.730;10.294;2023-02-28T15:16:48;5.00;81.90
19232;DHT22;9750;48.730;10.294;2023-02-28T15:19:20;4.90;82.10
19232;DHT22;9750;48.730;10.294;2023-02-28T15:21:55;4.90;81.80
19232;DHT22;9750;48.730;10.294;2023-02-28T15:24:32;4.90;81.90
19232;DHT22;9750;48.730;10.294;2023-02-28T15:27:05;4.90;81.80
19232;DHT22;9750;48.730;10.294;2023-02-28T15:29:41;4.90;81.60
19232;DHT22;9750;48.730;10.294;2023-02-28T15:32:27;4.90;81.90
19232;DHT22;9750;48.730;10.294;2023-02-28T15:34:55;4.80;81.70
19232;DHT22;9750;48.730;10.294;2023-02-28T15:37:37;4.80;82.20
19232;DHT22;9750;48.730;10.294;2023-02-28T15:40:13;4.80;82.30
19232;DHT22;9750;48.730;10.294;2023-02-28T15:42:41;4.70;82.60
19232;DHT22;9750;48.730;10.294;2023-02-28T15:45:32;4.70;83.20
19232;DHT22;9750;48.730;10.294;2023-02-28T15:48:03;4.70;83.20
19232;DHT22;9750;48.730;10.294;2023-02-28T15:50:31;4.70;83.30
19232;DHT22;9750;48.730;10.294;2023-02-28T15:52:58;4.60;83.30
19232;DHT22;9750;48.730;10.294;2023-02-28T15:55:30;4.60;83.20
19232;DHT22;9750;48.730;10.294;2023-02-28T16:01:23;4.60;83.30
19232;DHT22;9750;48.730;10.294;2023-02-28T16:03:53;4.60;83.80
19232;DHT22;9750;48.730;10.294;2023-02-28T16:06:36;4.60;83.50
19232;DHT22;9750;48.730;10.294;2023-02-28T16:09:05;4.50;84.10
19232;DHT22;9750;48.730;10.294;2023-02-28T16:11:38;4.50;84.60
19232;DHT22;9750;48.730;10.294;2023-02-28T16:14:09;4.40;84.90
19232;DHT22;9750;48.730;10.294;2023-02-28T16:16:43;4.40;85.30
19232;DHT22;9750;48.730;10.294;2023-02-28T16:19:21;4.30;85.20
19232;DHT22;9750;48.730;10.294;2023-02-28T16:21:48;4.20;85.30
19232;DHT22;9750;48.730;10.294;2023-02-28T16:24:16;4.20;85.60
19232;DHT22;9750;48.730;10.294;2023-02-28T16:26:48;4.20;85.80
19232;DHT22;9750;48.730;10.294;2023-02-28T16:29:23;4.10;86.20
19232;DHT22;9750;48.730;10.294;2023-02-28T16:31:51;4.10;86.10
19232;DHT22;9750;48.730;10.294;2023-02-28T16:34:19;4.00;86.50
19232;DHT22;9750;48.730;10.294;2023-02-28T16:36:47;4.00;86.90
19232;DHT22;9750;48.730;10.294;2023-02-28T16:39:15;4.00;87.40
19232;DHT22;9750;48.730;10.294;2023-02-28T16:41:43;3.90;87.30
19232;DHT22;9750;48.730;10.294;2023-02-28T16:44:20;3.90;87.30
19232;DHT22;9750;48.730;10.294;2023-02-28T16:46:48;3.90;87.40
19232;DHT22;9750;48.730;10.294;2023-02-28T16:49:15;3.90;87.60
19232;DHT22;9750;48.730;10.294;2023-02-28T16:51:42;3.80;87.80
19232;DHT22;9750;48.730;10.294;2023-02-28T16:54:09;3.80;87.80
19232;DHT22;9750;48.730;10.294;2023-02-28T16:56:39;3.80;88.00
19232;DHT22;9750;48.730;10.294;2023-02-28T16:59:10;3.70;87.80
19232;DHT22;9750;48.730;10.294;2023-02-28T17:01:39;3.60;88.10
19232;DHT22;9750;48.730;10.294;2023-02-28T17:04:09;3.60;88.30
19232;DHT22;9750;48.730;10.294;2023-02-28T17:06:37;3.50;88.40
19232;DHT22;9750;48.730;10.294;2023-02-28T17:09:07;3.50;88.80
19232;DHT22;9750;48.730;10.294;2023-02-28T17:11:39;3.50;88.80
19232;DHT22;9750;48.730;10.294;2023-02-28T17:14:07;3.40;88.70
19232;DHT22;9750;48.730;10.294;2023-02-28T17:16:49;3.40;88.90
19232;DHT22;9750;48.730;10.294;2023-02-28T17:19:17;3.40;88.90
19232;DHT22;9750;48.730;10.294;2023-02-28T17:21:45;3.40;88.80
19232;DHT22;9750;48.730;10.294;2023-02-28T17:24:13;3.30;89.00
19232;DHT22;9750;48.730;10.294;2023-02-28T17:26:41;3.30;88.70
19232;DHT22;9750;48.730;10.294;2023-02-28T17:29:16;3.30;88.80
19232;DHT22;9750;48.730;10.294;2023-02-28T17:31:43;3.20;88.90
19232;DHT22;9750;48.730;10.294;2023-02-28T17:34:13;3.20;89.00
19232;DHT22;9750;48.730;10.294;2023-02-28T17:36:44;3.20;89.00